Time;durP1;ratioP1;P1;durP2;ratioP2;P2;SDS_P1;SDS_P2;PMS_P1;PMS_P2;Temp;Humidity;BMP_temperature;BMP_pressure;BME280_temperature;BME280_humidity;BME280_pressure;Samples;Min_cycle;Max_cycle;Signal;HPM_P1;HPM_P2
2023/09/10 00:01:22;;;;;;;7.78;4.38;;;24.50;96.70;;;;;;5083206;28;20044;-76
2023/09/10 00:03:50;;;;;;;5.55;4.85;;;24.30;96.70;;;;;;5110213;27;20455;-77
2023/09/10 00:06:18;;;;;;;6.15;4.97;;;24.20;96.70;;;;;;5089967;28;20047;-77
2023/09/10 00:08:46;;;;;;;5.95;4.95;;;24.00;96.70;;;;;;5089526;28;20043;-76
2023/09/10 00:11:13;;;;;;;7.15;4.20;;;24.10;96.70;;;;;;5089622;28;20135;-76
2023/09/10 00:13:41;;;;;;;5.85;4.55;;;24.00;96.70;;;;;;5088635;28;20455;-76
2023/09/10 00:16:11;;;;;;;6.50;4.80;;;24.00;96.70;;;;;;5107161;28;20646;-77
2023/09/10 00:18:39;;;;;;;6.28;5.00;;;24.10;96.70;;;;;;5072594;28;20177;-76
2023/09/10 00:21:07;;;;;;;5.55;4.53;;;24.10;96.70;;;;;;5106722;28;20127;-77
2023/09/10 00:23:35;;;;;;;6.38;4.70;;;24.10;96.70;;;;;;5089177;28;20051;-76
2023/09/10 00:26:03;;;;;;;4.70;4.20;;;24.20;96.70;;;;;;5089148;28;20043;-76
2023/09/10 00:28:31;;;;;;;5.28;4.05;;;24.20;96.70;;;;;;5089435;28;20074;-76
2023/09/10 00:30:58;;;;;;;5.72;3.85;;;24.20;96.70;;;;;;5071208;28;20826;-77
2023/09/10 00:33:28;;;;;;;9.77;4.47;;;24.20;96.70;;;;;;5089038;28;20047;-76
2023/09/10 00:35:56;;;;;;;8.77;3.88;;;24.20;96.70;;;;;;5106899;28;20549;-76
2023/09/10 00:38:25;;;;;;;6.25;4.85;;;24.30;96.70;;;;;;5089272;28;20085;-76
2023/09/10 00:40:53;;;;;;;6.85;4.30;;;24.30;96.70;;;;;;5105631;28;20043;-76
2023/09/10 00:43:21;;;;;;;5.40;4.38;;;24.20;96.70;;;;;;5088471;28;20333;-77
2023/09/10 00:45:49;;;;;;;5.72;4.88;;;24.10;96.70;;;;;;5096952;28;20047;-76
2023/09/10 00:48:17;;;;;;;7.25;4.15;;;24.00;96.70;;;;;;5088096;28;20059;-76
2023/09/10 00:50:46;;;;;;;8.55;4.03;;;23.90;96.70;;;;;;5071780;28;20046;-75
2023/09/10 00:53:15;;;;;;;8.10;4.05;;;24.00;96.70;;;;;;5076917;28;20075;-76
2023/09/10 00:55:42;;;;;;;5.88;3.90;;;24.00;96.70;;;;;;5087627;28;20068;-76
2023/09/10 00:58:11;;;;;;;5.72;3.83;;;24.00;96.70;;;;;;5088101;28;20052;-77
2023/09/10 01:00:42;;;;;;;4.00;3.60;;;23.90;96.70;;;;;;5088450;28;20461;-76
2023/09/10 01:03:10;;;;;;;5.88;3.90;;;23.80;96.70;;;;;;5088217;28;20050;-77
2023/09/10 01:05:38;;;;;;;8.02;3.53;;;23.70;96.70;;;;;;5088281;28;20043;-76
2023/09/10 01:08:08;;;;;;;5.60;3.33;;;23.70;96.70;;;;;;5088645;28;20051;-76
2023/09/10 01:10:43;;;;;;;10.02;3.70;;;23.60;96.70;;;;;;5088273;28;20066;-75
2023/09/10 01:13:26;;;;;;;5.53;3.40;;;23.60;96.70;;;;;;5078066;28;20055;-77
2023/09/10 01:15:59;;;;;;;6.32;3.33;;;23.60;96.70;;;;;;5088136;28;20052;-76
2023/09/10 01:18:31;;;;;;;7.00;3.53;;;23.50;96.70;;;;;;5106214;28;20437;-76
2023/09/10 01:21:30;;;;;;;4.05;3.28;;;23.50;96.70;;;;;;5071455;28;20047;-76
2023/09/10 01:24:13;;;;;;;6.35;3.70;;;23.50;96.70;;;;;;5108470;27;20047;-76
2023/09/10 01:26:43;;;;;;;7.45;3.67;;;23.40;96.70;;;;;;5071323;28;20163;-76
2023/09/10 01:29:15;;;;;;;5.40;3.45;;;23.40;96.70;;;;;;5071199;28;20537;-76
2023/09/10 01:31:49;;;;;;;4.50;3.70;;;23.40;96.70;;;;;;5071505;28;20079;-76
2023/09/10 01:34:23;;;;;;;4.10;3.70;;;23.50;96.70;;;;;;5075836;28;20402;-76
2023/09/10 01:36:58;;;;;;;4.85;3.15;;;23.50;96.70;;;;;;5083804;28;20366;-76
2023/09/10 01:39:36;;;;;;;4.45;3.17;;;23.40;96.70;;;;;;5084399;28;20063;-76
2023/09/10 01:42:07;;;;;;;6.28;3.58;;;23.40;96.70;;;;;;5085126;28;20840;-77
2023/09/10 01:44:37;;;;;;;6.05;3.95;;;23.40;96.70;;;;;;5085571;28;20109;-76
2023/09/10 01:47:07;;;;;;;4.28;3.38;;;23.20;96.70;;;;;;5085274;28;20550;-76
2023/09/10 01:49:35;;;;;;;5.25;3.78;;;23.00;96.70;;;;;;5085564;28;20044;-77
2023/09/10 01:52:04;;;;;;;4.45;3.10;;;23.10;96.70;;;;;;5083897;28;20063;-76
2023/09/10 01:54:32;;;;;;;4.35;3.78;;;23.10;96.70;;;;;;5063610;28;20480;-77
2023/09/10 01:57:00;;;;;;;4.60;3.33;;;23.00;96.70;;;;;;5083447;28;20048;-76
2023/09/10 01:59:30;;;;;;;7.15;4.13;;;22.90;96.70;;;;;;5084359;28;20104;-77
2023/09/10 02:01:58;;;;;;;6.70;3.88;;;22.90;96.70;;;;;;5083716;28;20097;-75
2023/09/10 02:04:26;;;;;;;6.40;3.58;;;22.70;96.70;;;;;;5066932;28;20409;-76
2023/09/10 02:06:55;;;;;;;4.88;3.80;;;22.70;96.70;;;;;;5083778;28;20105;-76
2023/09/10 02:09:23;;;;;;;5.68;3.90;;;22.60;96.70;;;;;;5083298;28;20435;-76
2023/09/10 02:11:51;;;;;;;6.72;3.97;;;22.60;96.70;;;;;;5085280;28;20051;-76
2023/09/10 02:14:19;;;;;;;4.07;3.42;;;22.40;96.70;;;;;;5083656;28;20044;-76
2023/09/10 02:16:49;;;;;;;3.75;3.42;;;22.50;96.70;;;;;;5083169;28;20055;-76
2023/09/10 02:19:17;;;;;;;4.05;3.47;;;22.60;96.70;;;;;;5083748;28;20246;-76
2023/09/10 02:21:46;;;;;;;6.78;3.42;;;22.60;96.70;;;;;;5083601;28;20047;-76
2023/09/10 02:24:14;;;;;;;5.22;3.72;;;22.60;96.70;;;;;;5066450;28;20056;-76
2023/09/10 02:26:42;;;;;;;3.90;2.97;;;22.50;96.70;;;;;;5066814;28;20064;-76
2023/09/10 02:29:11;;;;;;;4.18;3.60;;;22.50;96.70;;;;;;5083232;28;20409;-76
2023/09/10 02:31:39;;;;;;;4.20;3.80;;;22.40;96.70;;;;;;5083881;28;20110;-75
2023/09/10 02:34:08;;;;;;;6.18;3.65;;;22.40;96.70;;;;;;5066371;28;20059;-76
2023/09/10 02:36:37;;;;;;;4.25;3.47;;;22.20;96.70;;;;;;5084997;28;20399;-76
2023/09/10 02:39:05;;;;;;;4.95;3.33;;;22.20;96.70;;;;;;5086985;28;20494;-76
2023/09/10 02:41:33;;;;;;;4.25;3.25;;;22.30;96.70;;;;;;5087448;28;21279;-76
2023/09/10 02:44:02;;;;;;;4.97;3.45;;;22.40;96.70;;;;;;5088735;28;20068;-76
2023/09/10 02:46:30;;;;;;;5.80;3.75;;;22.20;96.70;;;;;;5088858;28;20044;-76
2023/09/10 02:48:58;;;;;;;3.65;3.35;;;22.20;96.70;;;;;;5087465;28;20066;-76
2023/09/10 02:51:28;;;;;;;4.72;3.65;;;22.20;96.70;;;;;;5087458;28;20036;-77
2023/09/10 02:53:57;;;;;;;5.90;3.53;;;22.30;96.70;;;;;;5087143;28;20048;-76
2023/09/10 02:56:25;;;;;;;5.32;3.47;;;22.40;96.70;;;;;;5070109;28;20155;-76
2023/09/10 02:58:53;;;;;;;4.78;3.83;;;22.30;96.70;;;;;;5070081;28;20467;-75
2023/09/10 03:01:21;;;;;;;4.43;3.85;;;22.30;96.70;;;;;;5087084;28;20410;-76
2023/09/10 03:03:50;;;;;;;4.43;3.65;;;22.30;96.70;;;;;;5087302;28;20560;-76
2023/09/10 03:06:18;;;;;;;5.43;3.42;;;22.30;96.70;;;;;;5070162;28;20417;-76
2023/09/10 03:08:48;;;;;;;4.45;3.72;;;22.10;96.70;;;;;;5088031;28;20040;-76
2023/09/10 03:11:17;;;;;;;3.60;3.30;;;22.10;96.70;;;;;;5087125;28;20044;-77
2023/09/10 03:13:45;;;;;;;3.92;3.20;;;22.10;96.70;;;;;;5069895;28;20068;-76
2023/09/10 03:16:13;;;;;;;3.88;3.47;;;22.10;96.70;;;;;;5070359;28;20148;-76
2023/09/10 03:18:41;;;;;;;4.97;3.28;;;22.10;96.70;;;;;;5086680;28;20097;-76
2023/09/10 03:21:10;;;;;;;4.60;3.35;;;22.20;96.70;;;;;;5069699;28;20062;-76
2023/09/10 03:23:38;;;;;;;4.38;3.45;;;22.20;96.70;;;;;;5086850;28;21189;-76
2023/09/10 03:26:11;;;;;;;6.90;4.10;;;22.00;96.70;;;;;;5086987;28;20496;-76
2023/09/10 03:28:40;;;;;;;3.72;3.33;;;21.90;96.70;;;;;;5083160;28;20141;-76
2023/09/10 03:31:09;;;;;;;3.47;3.17;;;21.90;96.70;;;;;;5088047;28;20036;-76
2023/09/10 03:33:37;;;;;;;3.30;3.00;;;21.80;96.70;;;;;;5088276;28;20489;-76
2023/09/10 03:36:06;;;;;;;4.80;3.20;;;21.90;96.70;;;;;;5089142;28;20043;-76
2023/09/10 03:38:34;;;;;;;5.28;3.45;;;22.00;96.70;;;;;;5082146;28;20549;-76
2023/09/10 03:41:02;;;;;;;3.60;3.30;;;21.80;96.70;;;;;;5089888;28;20139;-76
2023/09/10 03:43:33;;;;;;;5.80;3.28;;;21.80;96.70;;;;;;5072658;28;20054;-76
2023/09/10 03:46:01;;;;;;;5.40;3.38;;;21.70;96.70;;;;;;5102222;28;20445;-75
2023/09/10 03:48:29;;;;;;;4.53;3.33;;;21.70;96.70;;;;;;5089817;28;20071;-76
2023/09/10 03:50:58;;;;;;;3.78;3.35;;;21.60;96.70;;;;;;5098019;28;20067;-76
2023/09/10 03:53:26;;;;;;;4.35;2.83;;;21.50;96.70;;;;;;5089938;28;20090;-76
2023/09/10 03:55:54;;;;;;;3.45;2.90;;;21.50;96.70;;;;;;5089084;28;20040;-76
2023/09/10 03:58:23;;;;;;;5.65;3.08;;;21.50;96.70;;;;;;5089644;28;20058;-75
2023/09/10 04:00:52;;;;;;;6.45;2.97;;;21.40;96.70;;;;;;5091702;27;20058;-75
2023/09/10 04:03:21;;;;;;;4.85;3.33;;;21.30;96.70;;;;;;5129176;27;20570;-75
2023/09/10 04:05:49;;;;;;;4.50;3.00;;;21.30;96.70;;;;;;5107823;28;20599;-75
2023/09/10 04:08:18;;;;;;;4.57;3.35;;;21.30;96.70;;;;;;5107374;28;20115;-76
2023/09/10 04:10:46;;;;;;;3.90;3.08;;;21.30;96.70;;;;;;5107503;28;20127;-76
2023/09/10 04:13:14;;;;;;;4.53;3.20;;;21.30;96.70;;;;;;5089049;28;20047;-76
2023/09/10 04:15:42;;;;;;;5.72;3.05;;;21.30;96.70;;;;;;5072473;28;20146;-75
2023/09/10 04:18:12;;;;;;;5.07;3.10;;;21.20;96.70;;;;;;5107233;28;20054;-75
2023/09/10 04:20:41;;;;;;;5.10;3.17;;;21.10;96.70;;;;;;5089096;28;20112;-76
2023/09/10 04:23:09;;;;;;;4.68;2.92;;;21.20;96.70;;;;;;5072334;28;20419;-76
2023/09/10 04:25:37;;;;;;;4.72;3.03;;;21.20;96.70;;;;;;5088854;28;20047;-75
2023/09/10 04:28:06;;;;;;;3.70;3.33;;;21.20;96.70;;;;;;5089068;28;20404;-75
2023/09/10 04:30:34;;;;;;;3.70;3.40;;;21.30;96.70;;;;;;5088611;28;20138;-76
2023/09/10 04:33:03;;;;;;;8.70;3.50;;;21.30;96.70;;;;;;5088873;28;20902;-76
2023/09/10 04:35:33;;;;;;;5.13;3.38;;;21.30;96.70;;;;;;5085052;28;20063;-75
2023/09/10 04:38:01;;;;;;;4.43;3.20;;;21.20;96.70;;;;;;5085074;28;20089;-75
2023/09/10 04:40:31;;;;;;;7.13;3.72;;;21.10;96.70;;;;;;5068581;28;20067;-75
2023/09/10 04:42:59;;;;;;;4.18;3.78;;;21.00;96.70;;;;;;5068550;28;20501;-76
2023/09/10 04:45:27;;;;;;;3.83;3.35;;;21.00;96.70;;;;;;5084747;28;20055;-75
2023/09/10 04:47:56;;;;;;;5.18;3.60;;;21.10;96.70;;;;;;5084830;28;20533;-76
2023/09/10 04:50:25;;;;;;;3.80;3.50;;;21.10;96.70;;;;;;5084358;28;20047;-76
2023/09/10 04:52:55;;;;;;;3.95;3.50;;;21.30;96.70;;;;;;5068491;28;20119;-75
2023/09/10 04:55:23;;;;;;;5.68;3.53;;;21.50;96.70;;;;;;5085225;28;20127;-76
2023/09/10 04:57:51;;;;;;;4.63;3.60;;;21.40;96.70;;;;;;5067621;28;20459;-76
2023/09/10 05:00:20;;;;;;;4.53;3.60;;;21.20;96.70;;;;;;5083728;28;20394;-76
2023/09/10 05:02:48;;;;;;;4.15;3.55;;;21.20;96.70;;;;;;5084381;28;20484;-75
2023/09/10 05:05:16;;;;;;;3.97;3.58;;;21.20;96.70;;;;;;5084525;28;20486;-75
2023/09/10 05:07:48;;;;;;;3.97;3.53;;;21.20;96.70;;;;;;5084525;28;20040;-76
2023/09/10 05:10:19;;;;;;;9.48;3.80;;;21.20;96.70;;;;;;5084616;28;20052;-75
2023/09/10 05:12:51;;;;;;;4.82;3.40;;;21.10;96.70;;;;;;5083915;28;20048;-75
2023/09/10 05:15:22;;;;;;;4.40;3.22;;;20.90;96.70;;;;;;5067965;28;20079;-75
2023/09/10 05:17:50;;;;;;;4.25;3.25;;;21.00;96.70;;;;;;5084660;28;20150;-76
2023/09/10 05:20:18;;;;;;;5.55;3.25;;;21.00;96.70;;;;;;5080858;28;20536;-75
2023/09/10 05:22:47;;;;;;;4.43;3.30;;;21.00;96.70;;;;;;5081593;28;20044;-75
2023/09/10 05:25:15;;;;;;;3.40;2.78;;;20.90;96.70;;;;;;5067642;28;20044;-75
2023/09/10 05:27:47;;;;;;;5.70;3.45;;;20.90;96.70;;;;;;5085087;28;20048;-76
2023/09/10 05:30:15;;;;;;;3.50;3.20;;;20.90;96.70;;;;;;5076145;28;20052;-76
2023/09/10 05:32:43;;;;;;;5.35;3.72;;;20.90;96.70;;;;;;5084219;28;20131;-76
2023/09/10 05:35:12;;;;;;;5.05;2.78;;;20.90;96.70;;;;;;5083742;28;20056;-76
2023/09/10 05:37:40;;;;;;;4.00;3.60;;;20.90;96.70;;;;;;5083820;28;20059;-76
2023/09/10 05:40:09;;;;;;;6.50;3.42;;;20.90;96.70;;;;;;5067311;28;20055;-76
2023/09/10 05:42:37;;;;;;;5.70;3.25;;;21.00;96.70;;;;;;5085093;28;20043;-76
2023/09/10 05:45:08;;;;;;;5.38;3.50;;;21.00;96.70;;;;;;5067795;28;20162;-76
2023/09/10 05:47:36;;;;;;;5.57;3.30;;;21.10;96.70;;;;;;5066967;28;20048;-76
2023/09/10 05:50:05;;;;;;;5.47;3.22;;;21.30;96.70;;;;;;5083913;28;20135;-76
2023/09/10 05:52:33;;;;;;;5.07;3.55;;;21.30;96.70;;;;;;5085505;28;20044;-76
2023/09/10 05:55:02;;;;;;;4.20;3.35;;;21.30;96.70;;;;;;5085145;28;20048;-76
2023/09/10 05:57:30;;;;;;;5.32;3.97;;;21.20;96.70;;;;;;5083347;28;20055;-76
2023/09/10 05:59:58;;;;;;;5.55;3.70;;;21.40;96.70;;;;;;5083900;28;20048;-76
2023/09/10 06:02:27;;;;;;;7.57;4.15;;;21.40;96.70;;;;;;5083463;28;20492;-76
2023/09/10 06:04:55;;;;;;;7.15;4.50;;;21.30;96.70;;;;;;5083757;28;20425;-75
2023/09/10 06:07:24;;;;;;;5.53;3.90;;;21.30;96.70;;;;;;5083786;28;20075;-76
2023/09/10 06:09:51;;;;;;;8.52;4.30;;;21.50;96.70;;;;;;5086786;28;20090;-75
2023/09/10 06:12:20;;;;;;;6.45;4.47;;;21.50;96.70;;;;;;5066605;28;20063;-75
2023/09/10 06:14:48;;;;;;;7.97;4.95;;;21.50;96.70;;;;;;5083467;28;20055;-76
2023/09/10 06:17:19;;;;;;;5.55;4.57;;;21.60;96.70;;;;;;5079810;28;20087;-75
2023/09/10 06:19:51;;;;;;;5.88;4.60;;;21.60;96.70;;;;;;5085206;28;20044;-76
2023/09/10 06:22:19;;;;;;;5.72;5.05;;;21.70;96.70;;;;;;5083188;28;20051;-75
2023/09/10 06:24:47;;;;;;;6.82;4.57;;;21.70;96.70;;;;;;5085123;28;20097;-75
2023/09/10 06:27:15;;;;;;;7.97;6.18;;;21.70;96.70;;;;;;5083389;28;20056;-76
2023/09/10 06:29:43;;;;;;;7.72;5.07;;;21.70;96.70;;;;;;5084085;28;20401;-74
2023/09/10 06:32:11;;;;;;;7.78;5.28;;;21.70;96.70;;;;;;5083373;28;20670;-74
2023/09/10 06:34:41;;;;;;;7.55;5.20;;;21.80;96.70;;;;;;5083002;28;20372;-76
2023/09/10 06:37:11;;;;;;;7.85;5.43;;;21.80;96.70;;;;;;5082783;28;20044;-76
2023/09/10 06:39:39;;;;;;;9.02;5.10;;;21.90;96.70;;;;;;5085133;28;20553;-76
2023/09/10 06:42:10;;;;;;;4.57;4.00;;;21.90;96.70;;;;;;5083473;28;20048;-76
2023/09/10 06:44:45;;;;;;;7.07;3.90;;;21.90;96.70;;;;;;5083170;28;20596;-75
2023/09/10 06:47:12;;;;;;;6.05;4.30;;;22.00;96.70;;;;;;5084921;28;20047;-75
2023/09/10 06:49:40;;;;;;;5.60;4.07;;;22.10;96.70;;;;;;5082810;28;20029;-75
2023/09/10 06:52:11;;;;;;;6.13;3.95;;;22.30;96.70;;;;;;5084980;28;21083;-75
2023/09/10 06:54:39;;;;;;;4.88;3.58;;;22.20;96.70;;;;;;5083286;28;20093;-75
2023/09/10 06:57:07;;;;;;;5.63;3.50;;;22.30;96.70;;;;;;5083024;28;20088;-75
2023/09/10 06:59:35;;;;;;;4.18;3.78;;;22.30;96.70;;;;;;5084293;28;20464;-76
2023/09/10 07:02:03;;;;;;;4.60;3.40;;;22.40;96.70;;;;;;5082931;28;20043;-75
2023/09/10 07:04:31;;;;;;;5.30;3.40;;;22.40;96.70;;;;;;5083003;28;20071;-75
2023/09/10 07:06:59;;;;;;;5.35;3.40;;;22.50;96.70;;;;;;5084735;28;20151;-75
2023/09/10 07:09:29;;;;;;;5.50;3.70;;;22.50;96.70;;;;;;5084614;28;20044;-76
2023/09/10 07:11:56;;;;;;;4.50;3.65;;;22.70;96.70;;;;;;5084450;28;20719;-75
2023/09/10 07:14:24;;;;;;;5.18;3.45;;;22.80;96.70;;;;;;5084214;28;20048;-75
2023/09/10 07:16:52;;;;;;;9.57;4.32;;;22.80;96.70;;;;;;5084680;28;20080;-75
2023/09/10 07:19:20;;;;;;;4.07;3.63;;;22.80;96.70;;;;;;5082345;28;20387;-75
2023/09/10 07:21:48;;;;;;;3.90;3.50;;;22.80;96.70;;;;;;5083396;28;20058;-76
2023/09/10 07:24:16;;;;;;;8.30;3.30;;;22.90;96.70;;;;;;5088490;28;20044;-76
2023/09/10 07:26:45;;;;;;;6.22;3.63;;;23.00;96.70;;;;;;5086776;28;20055;-76
2023/09/10 07:29:16;;;;;;;6.78;3.72;;;23.10;96.70;;;;;;5086253;28;20087;-76
2023/09/10 07:31:44;;;;;;;4.70;3.70;;;23.20;96.70;;;;;;5086940;28;20052;-75
2023/09/10 07:34:12;;;;;;;4.05;3.13;;;23.20;96.70;;;;;;5085992;28;20048;-76
2023/09/10 07:36:40;;;;;;;5.20;3.28;;;23.20;96.70;;;;;;5086586;28;20658;-76
2023/09/10 07:39:08;;;;;;;5.65;3.85;;;23.20;96.70;;;;;;5088038;28;20048;-76
2023/09/10 07:41:36;;;;;;;8.13;3.17;;;23.30;96.70;;;;;;5087923;28;20048;-76
2023/09/10 07:44:06;;;;;;;5.20;2.97;;;23.30;96.70;;;;;;5069019;28;20147;-76
2023/09/10 07:46:34;;;;;;;6.40;3.45;;;23.50;96.70;;;;;;5087459;28;20674;-76
2023/09/10 07:49:02;;;;;;;4.68;3.30;;;23.60;96.70;;;;;;5086157;28;20070;-76
2023/09/10 07:51:30;;;;;;;3.97;3.60;;;23.60;96.70;;;;;;5086160;28;20469;-76
2023/09/10 07:53:58;;;;;;;4.15;3.42;;;23.70;96.70;;;;;;5096468;28;20036;-76
2023/09/10 07:56:27;;;;;;;4.28;3.30;;;23.80;96.70;;;;;;5087465;28;20529;-76
2023/09/10 07:58:56;;;;;;;4.55;3.13;;;23.90;96.70;;;;;;5068769;28;20048;-76
2023/09/10 08:01:25;;;;;;;10.45;3.33;;;24.00;96.70;;;;;;5085994;28;20051;-76
2023/09/10 08:03:53;;;;;;;3.95;3.10;;;24.00;96.70;;;;;;5087413;28;20687;-76
2023/09/10 08:06:21;;;;;;;5.43;3.13;;;24.00;96.70;;;;;;5069357;28;20051;-76
2023/09/10 08:08:49;;;;;;;4.88;3.22;;;24.00;96.70;;;;;;5085420;28;20440;-77
2023/09/10 08:11:17;;;;;;;4.03;2.80;;;24.10;96.70;;;;;;5083697;28;20071;-78
2023/09/10 08:13:45;;;;;;;5.55;3.13;;;24.20;96.70;;;;;;5085481;28;20544;-77
2023/09/10 08:16:15;;;;;;;4.55;2.83;;;24.30;96.70;;;;;;5084943;28;20040;-77
2023/09/10 08:18:45;;;;;;;4.97;3.05;;;24.40;96.70;;;;;;5078598;28;20044;-79
2023/09/10 08:21:12;;;;;;;5.18;2.83;;;24.50;96.70;;;;;;5085580;28;20048;-77
2023/09/10 08:23:42;;;;;;;5.35;3.70;;;24.50;96.70;;;;;;5086971;28;20527;-78
2023/09/10 08:26:11;;;;;;;4.43;2.80;;;24.70;96.70;;;;;;5086706;28;20062;-77
2023/09/10 08:28:39;;;;;;;5.10;3.08;;;24.70;96.70;;;;;;5086580;28;20040;-77
2023/09/10 08:31:07;;;;;;;4.40;3.22;;;24.80;96.70;;;;;;5086408;28;20055;-77
2023/09/10 08:33:35;;;;;;;3.50;2.95;;;24.90;96.70;;;;;;5086888;28;20101;-77
2023/09/10 08:36:05;;;;;;;5.40;3.08;;;25.00;96.70;;;;;;5106885;28;20043;-77
2023/09/10 08:38:34;;;;;;;4.18;2.63;;;25.10;96.70;;;;;;5106937;28;20039;-77
2023/09/10 08:41:12;;;;;;;4.85;3.13;;;25.10;96.70;;;;;;5106862;28;20118;-77
2023/09/10 08:43:48;;;;;;;4.97;2.90;;;25.20;96.70;;;;;;5105990;28;20050;-78
2023/09/10 08:46:19;;;;;;;;;;;25.20;96.70;;;;;;5089366;28;20046;-77
2023/09/10 08:48:48;;;;;;;3.38;3.03;;;25.30;96.70;;;;;;5106887;28;19930;-77
2023/09/10 08:51:18;;;;;;;4.70;2.80;;;25.50;96.70;;;;;;5106892;28;20048;-77
2023/09/10 08:53:48;;;;;;;3.83;2.83;;;25.60;96.70;;;;;;5088703;28;20579;-78
2023/09/10 08:56:16;;;;;;;4.30;2.72;;;25.80;96.70;;;;;;5098873;28;20527;-77
2023/09/10 08:58:45;;;;;;;3.70;3.15;;;25.80;96.70;;;;;;5088201;28;20047;-76
2023/09/10 09:01:14;;;;;;;3.63;3.33;;;25.80;96.70;;;;;;5106726;28;20504;-77
2023/09/10 09:03:42;;;;;;;4.30;3.20;;;25.90;96.70;;;;;;5088428;28;20043;-78
2023/09/10 09:06:10;;;;;;;4.10;3.22;;;26.00;96.70;;;;;;5105945;28;20042;-78
2023/09/10 09:08:41;;;;;;;3.47;3.10;;;26.20;96.70;;;;;;5105911;28;20109;-78
2023/09/10 09:11:12;;;;;;;4.70;3.20;;;26.20;96.70;;;;;;5106559;28;20061;-77
2023/09/10 09:13:44;;;;;;;5.65;3.05;;;26.30;96.70;;;;;;5087851;28;20040;-77
2023/09/10 09:16:13;;;;;;;3.10;2.80;;;26.40;96.70;;;;;;5088637;28;20036;-77
2023/09/10 09:18:42;;;;;;;3.08;2.78;;;26.50;96.70;;;;;;5106071;28;20055;-77
2023/09/10 09:21:16;;;;;;;4.47;3.08;;;26.50;96.70;;;;;;5105564;28;20398;-77
2023/09/10 09:23:49;;;;;;;4.90;3.30;;;26.70;96.70;;;;;;5106060;28;20481;-78
2023/09/10 09:26:18;;;;;;;4.57;3.22;;;26.80;96.70;;;;;;5105873;28;20523;-76
2023/09/10 09:28:47;;;;;;;4.53;3.13;;;26.90;96.70;;;;;;5087803;28;20044;-77
2023/09/10 09:31:21;;;;;;;3.70;3.20;;;26.90;96.70;;;;;;5087700;28;20100;-76
2023/09/10 09:33:49;;;;;;;4.63;3.55;;;27.10;96.70;;;;;;5097420;28;20079;-77
2023/09/10 09:36:17;;;;;;;4.90;3.47;;;27.10;96.70;;;;;;5105726;28;20088;-78
2023/09/10 09:38:48;;;;;;;3.97;3.08;;;27.20;96.70;;;;;;5105897;28;20479;-78
2023/09/10 09:41:17;;;;;;;6.13;3.38;;;27.40;96.70;;;;;;5105868;28;20043;-77
2023/09/10 09:43:45;;;;;;;4.57;3.35;;;27.40;96.70;;;;;;5067420;28;20131;-78
2023/09/10 09:46:17;;;;;;;4.18;3.60;;;27.50;96.70;;;;;;5096653;28;20097;-78
2023/09/10 09:48:46;;;;;;;5.90;3.50;;;27.60;96.70;;;;;;5070892;28;20091;-77
2023/09/10 09:51:15;;;;;;;7.13;3.90;;;27.60;96.70;;;;;;5088072;28;20441;-78
2023/09/10 09:53:46;;;;;;;4.68;4.07;;;27.80;96.70;;;;;;5070626;28;20048;-77
2023/09/10 09:56:17;;;;;;;5.45;3.95;;;28.00;96.70;;;;;;5087382;28;20059;-77
2023/09/10 09:58:45;;;;;;;5.78;3.47;;;28.20;96.70;;;;;;5097072;28;20059;-77
2023/09/10 10:01:14;;;;;;;5.93;3.17;;;28.10;96.70;;;;;;5105457;28;20420;-77
2023/09/10 10:03:42;;;;;;;6.50;3.70;;;28.20;96.70;;;;;;5102405;28;20496;-78
2023/09/10 10:06:16;;;;;;;6.40;3.58;;;28.40;96.70;;;;;;5105979;28;20035;-76
2023/09/10 10:08:49;;;;;;;4.70;3.35;;;28.60;96.70;;;;;;5105314;28;20504;-76
2023/09/10 10:11:28;;;;;;;4.45;3.47;;;28.60;96.70;;;;;;5098036;28;20048;-76
2023/09/10 10:13:59;;;;;;;4.50;3.55;;;28.80;96.70;;;;;;5104784;28;20055;-76
2023/09/10 10:16:28;;;;;;;5.45;3.30;;;29.00;96.70;;;;;;5110131;27;20042;-76
2023/09/10 10:18:57;;;;;;;5.25;3.30;;;28.90;96.70;;;;;;5105268;28;20048;-78
2023/09/10 10:21:25;;;;;;;10.20;4.07;;;28.80;96.70;;;;;;5095352;28;20052;-76
2023/09/10 10:23:56;;;;;;;5.82;3.30;;;29.00;96.70;;;;;;5095285;28;20039;-76
2023/09/10 10:26:25;;;;;;;5.13;3.55;;;29.10;96.70;;;;;;5087672;28;20092;-76
2023/09/10 10:28:55;;;;;;;3.60;3.30;;;29.20;96.70;;;;;;5087168;28;20069;-76
2023/09/10 10:31:26;;;;;;;4.13;3.60;;;29.30;96.70;;;;;;5105291;28;20139;-76
2023/09/10 10:34:03;;;;;;;4.97;3.28;;;29.40;96.70;;;;;;5103120;28;20062;-76
2023/09/10 10:36:40;;;;;;;4.95;3.85;;;29.40;96.70;;;;;;5104692;28;20051;-77
2023/09/10 10:39:10;;;;;;;4.82;3.58;;;29.50;96.70;;;;;;5105163;28;20144;-77
2023/09/10 10:41:43;;;;;;;5.57;3.97;;;29.60;96.70;;;;;;5104971;28;20069;-76
2023/09/10 10:44:19;;;;;;;4.53;3.15;;;29.90;96.70;;;;;;5086233;28;20044;-77
2023/09/10 10:46:54;;;;;;;9.68;3.53;;;30.10;96.70;;;;;;5097084;28;20043;-76
2023/09/10 10:49:23;;;;;;;6.28;3.60;;;30.30;96.70;;;;;;5070218;28;20077;-75
2023/09/10 10:51:54;;;;;;;3.53;2.97;;;30.30;96.70;;;;;;5105348;28;20122;-76
2023/09/10 10:54:26;;;;;;;3.85;2.90;;;30.20;96.70;;;;;;5087231;28;20763;-76
2023/09/10 10:56:54;;;;;;;4.20;3.35;;;30.30;96.70;;;;;;5070580;28;20058;-76
2023/09/10 10:59:23;;;;;;;4.97;3.25;;;30.40;96.70;;;;;;5096497;28;20098;-77
2023/09/10 11:02:24;;;;;;;5.53;3.83;;;30.40;96.70;;;;;;5091416;28;20047;-76
2023/09/10 11:04:57;;;;;;;6.38;3.70;;;30.40;96.70;;;;;;5025264;28;20053;-76
2023/09/10 11:07:29;;;;;;;3.83;3.45;;;30.50;96.70;;;;;;5018240;28;20050;-76
2023/09/10 11:10:20;;;;;;;2.90;2.70;;;30.50;96.70;;;;;;5009066;28;20065;-76
2023/09/10 11:13:07;;;;;;;4.38;3.20;;;30.50;96.70;;;;;;5024747;28;20100;-76
2023/09/10 11:15:35;;;;;;;3.75;3.28;;;30.40;96.70;;;;;;5003402;28;20515;-76
2023/09/10 11:18:44;;;;;;;4.93;3.38;;;30.50;96.70;;;;;;5025186;28;20485;-76
2023/09/10 11:21:13;;;;;;;3.40;3.08;;;30.60;96.70;;;;;;5019475;28;20165;-76
2023/09/10 11:24:20;;;;;;;4.15;3.35;;;30.80;96.70;;;;;;5025394;28;20057;-76
2023/09/10 11:26:50;;;;;;;5.03;2.90;;;30.90;96.70;;;;;;5008899;28;20061;-76
2023/09/10 11:29:21;;;;;;;4.03;3.65;;;31.00;96.70;;;;;;5024441;28;21144;-76
2023/09/10 11:31:52;;;;;;;5.25;3.13;;;31.40;96.70;;;;;;5008382;28;20060;-75
2023/09/10 11:34:38;;;;;;;3.72;3.42;;;31.60;96.70;;;;;;5024727;28;20150;-76
2023/09/10 11:37:10;;;;;;;4.22;3.33;;;31.80;96.70;;;;;;5094199;28;20055;-76
2023/09/10 11:39:38;;;;;;;4.32;3.47;;;31.90;96.70;;;;;;5073203;28;20058;-76
2023/09/10 11:42:08;;;;;;;3.47;2.97;;;31.90;96.70;;;;;;5108156;28;20036;-77
2023/09/10 11:44:37;;;;;;;3.20;2.90;;;32.00;96.70;;;;;;5108287;28;20047;-78
2023/09/10 11:47:05;;;;;;;3.97;3.50;;;32.20;96.70;;;;;;5108398;28;20085;-76
2023/09/10 11:49:34;;;;;;;3.53;3.22;;;32.10;96.70;;;;;;5090126;28;20050;-77
2023/09/10 11:52:02;;;;;;;4.80;3.30;;;32.20;96.70;;;;;;5090075;28;20495;-76
2023/09/10 11:54:31;;;;;;;4.72;3.45;;;32.20;96.70;;;;;;5107433;28;20393;-76
2023/09/10 11:56:59;;;;;;;5.32;3.30;;;32.20;96.70;;;;;;5090204;28;20405;-77
2023/09/10 11:59:30;;;;;;;4.45;3.40;;;32.10;96.70;;;;;;5089865;28;20529;-76
2023/09/10 12:01:59;;;;;;;4.82;3.33;;;32.40;96.70;;;;;;5107919;28;20047;-77
2023/09/10 12:04:28;;;;;;;4.18;3.20;;;32.70;96.70;;;;;;5089160;28;20501;-76
2023/09/10 12:06:56;;;;;;;3.75;3.42;;;32.50;96.70;;;;;;5080978;28;20456;-77
2023/09/10 12:09:29;;;;;;;4.45;3.30;;;32.70;96.70;;;;;;5107304;28;20040;-76
2023/09/10 12:12:01;;;;;;;4.10;3.10;;;32.90;96.70;;;;;;5112295;27;20047;-76
2023/09/10 12:14:31;;;;;;;4.65;3.72;;;33.10;96.70;;;;;;5104917;28;20043;-76
2023/09/10 12:16:59;;;;;;;3.50;3.20;;;33.40;96.70;;;;;;5106944;28;20062;-77
2023/09/10 12:19:28;;;;;;;4.15;3.22;;;33.40;96.70;;;;;;5081240;28;20050;-76
2023/09/10 12:21:56;;;;;;;5.63;3.05;;;33.50;96.70;;;;;;5107386;28;20052;-76
2023/09/10 12:24:24;;;;;;;3.55;3.00;;;33.40;96.70;;;;;;5107097;28;20674;-76
2023/09/10 12:26:53;;;;;;;3.78;2.85;;;33.20;96.70;;;;;;5089401;28;20039;-76
2023/09/10 12:29:21;;;;;;;3.25;2.92;;;33.30;96.70;;;;;;5107169;28;20070;-76
2023/09/10 12:31:54;;;;;;;3.58;2.90;;;33.50;96.70;;;;;;5106699;28;20040;-77
2023/09/10 12:34:22;;;;;;;4.65;3.58;;;33.40;96.70;;;;;;5077485;28;20143;-76
2023/09/10 12:36:51;;;;;;;3.25;2.97;;;33.20;96.70;;;;;;5085056;28;20040;-76
2023/09/10 12:39:20;;;;;;;2.92;2.70;;;33.00;96.70;;;;;;5086371;28;20048;-77
2023/09/10 12:41:49;;;;;;;3.75;2.90;;;33.20;96.70;;;;;;5068910;28;20044;-78
2023/09/10 12:44:18;;;;;;;4.18;2.83;;;33.50;96.70;;;;;;5084535;28;20056;-77
2023/09/10 12:46:46;;;;;;;6.32;3.70;;;33.50;96.70;;;;;;5077041;28;20040;-77
2023/09/10 12:49:16;;;;;;;6.18;3.00;;;33.40;96.70;;;;;;5085247;28;20052;-77
2023/09/10 12:51:44;;;;;;;3.40;3.08;;;33.70;96.70;;;;;;5086977;28;20047;-76
2023/09/10 12:54:14;;;;;;;3.03;2.72;;;33.90;96.70;;;;;;5068415;28;20146;-77
2023/09/10 12:56:42;;;;;;;4.07;2.95;;;33.90;96.70;;;;;;5084875;28;20047;-76
2023/09/10 12:59:11;;;;;;;4.30;2.88;;;33.90;96.00;;;;;;5084338;28;20090;-77
2023/09/10 13:01:40;;;;;;;4.25;3.20;;;34.10;95.40;;;;;;5086110;28;20127;-78